Time;durP1;ratioP1;P1;durP2;ratioP2;P2;SDS_P1;SDS_P2;PMS_P1;PMS_P2;Temp;Humidity;BMP_temperature;BMP_pressure;BME280_temperature;BME280_humidity;BME280_pressure;Samples;Min_cycle;Max_cycle;Signal;HPM_P1;HPM_P2
2024/01/06 00:00:59;;;;;;;6.28;5.88;;;1.50;99.90;;;;;;5069374;28;20244;-76
2024/01/06 00:03:27;;;;;;;6.10;5.70;;;1.50;99.90;;;;;;5083997;28;20202;-76
2024/01/06 00:05:54;;;;;;;6.20;5.80;;;1.50;99.90;;;;;;5073691;28;20233;-76
2024/01/06 00:08:21;;;;;;;5.85;5.45;;;1.50;99.90;;;;;;5073337;28;20202;-76
2024/01/06 00:10:49;;;;;;;6.68;6.22;;;1.50;99.90;;;;;;5071254;28;20218;-76
2024/01/06 00:13:16;;;;;;;6.07;5.70;;;1.40;99.90;;;;;;5071623;28;20210;-76
2024/01/06 00:15:43;;;;;;;6.40;6.00;;;1.40;99.90;;;;;;5069922;28;20732;-76
2024/01/06 00:18:10;;;;;;;6.45;6.05;;;1.30;99.90;;;;;;5073617;28;20293;-77
2024/01/06 00:20:39;;;;;;;6.53;6.13;;;1.30;99.90;;;;;;5070698;28;20258;-77
2024/01/06 00:23:06;;;;;;;6.82;6.43;;;1.30;99.90;;;;;;5078570;28;20710;-76
2024/01/06 00:25:33;;;;;;;6.65;6.15;;;1.40;99.90;;;;;;5074782;28;20233;-76
2024/01/06 00:28:00;;;;;;;6.53;6.13;;;1.30;99.90;;;;;;5071151;28;20273;-76
2024/01/06 00:30:27;;;;;;;6.43;6.03;;;1.30;99.90;;;;;;5066254;28;20768;-76
2024/01/06 00:32:54;;;;;;;6.45;6.05;;;1.30;99.90;;;;;;5068410;28;20320;-76
2024/01/06 00:35:22;;;;;;;6.10;5.75;;;1.30;99.90;;;;;;5072552;28;20297;-76
2024/01/06 00:37:50;;;;;;;6.55;6.15;;;1.40;99.90;;;;;;5084065;28;20206;-78
2024/01/06 00:40:18;;;;;;;5.85;5.45;;;1.40;99.90;;;;;;5081656;28;20222;-78
2024/01/06 00:42:45;;;;;;;5.50;5.20;;;1.30;99.90;;;;;;5075344;28;20206;-76
2024/01/06 00:45:13;;;;;;;5.78;5.47;;;1.40;99.90;;;;;;5072718;28;20214;-77
2024/01/06 00:47:40;;;;;;;6.00;5.70;;;1.40;99.90;;;;;;5070186;28;20226;-76
2024/01/06 00:50:07;;;;;;;5.85;5.55;;;1.40;99.90;;;;;;5071767;28;20218;-77
2024/01/06 00:52:34;;;;;;;5.55;5.25;;;1.40;99.90;;;;;;5078377;28;20206;-77
2024/01/06 00:55:03;;;;;;;6.30;5.90;;;1.40;99.90;;;;;;5071952;28;20222;-78
2024/01/06 00:57:30;;;;;;;6.00;5.60;;;1.40;99.90;;;;;;5071844;28;20191;-76
2024/01/06 00:59:57;;;;;;;5.85;5.47;;;1.30;99.90;;;;;;5078705;28;20233;-75
2024/01/06 01:02:24;;;;;;;5.13;4.82;;;1.40;99.90;;;;;;5074239;28;20198;-76
2024/01/06 01:04:52;;;;;;;5.13;4.82;;;1.40;99.90;;;;;;5068927;28;20594;-76
2024/01/06 01:07:19;;;;;;;5.47;5.18;;;1.40;99.90;;;;;;5074248;28;20218;-77
2024/01/06 01:09:46;;;;;;;5.35;5.05;;;1.40;99.90;;;;;;5069880;28;20221;-76
2024/01/06 01:12:15;;;;;;;5.53;5.22;;;1.50;99.90;;;;;;5069906;28;20202;-76
2024/01/06 01:14:42;;;;;;;5.72;5.43;;;1.50;99.90;;;;;;5074759;28;20214;-77
2024/01/06 01:17:09;;;;;;;5.57;5.28;;;1.50;99.90;;;;;;5071131;28;20206;-75
2024/01/06 01:19:36;;;;;;;5.28;4.97;;;1.50;99.90;;;;;;5067786;28;20206;-76
2024/01/06 01:22:03;;;;;;;6.03;5.63;;;1.50;99.90;;;;;;5068509;28;20218;-76
2024/01/06 01:24:29;;;;;;;5.20;4.90;;;1.50;99.90;;;;;;5063363;28;20210;-77
2024/01/06 01:26:56;;;;;;;5.85;5.45;;;1.40;99.90;;;;;;5065500;28;20218;-77
2024/01/06 01:29:25;;;;;;;5.60;5.30;;;1.40;99.90;;;;;;5063281;28;20199;-76
2024/01/06 01:31:52;;;;;;;5.57;5.28;;;1.40;99.90;;;;;;5066724;28;20234;-76
2024/01/06 01:34:19;;;;;;;5.22;4.93;;;1.40;99.90;;;;;;5069905;28;20198;-76
2024/01/06 01:36:46;;;;;;;5.43;5.13;;;1.40;99.90;;;;;;5093790;28;20202;-77
2024/01/06 01:39:13;;;;;;;5.88;5.50;;;1.40;99.90;;;;;;5086627;28;20675;-75
2024/01/06 01:41:41;;;;;;;5.88;5.47;;;1.40;99.90;;;;;;5078051;28;20222;-76
2024/01/06 01:44:08;;;;;;;5.45;5.15;;;1.40;99.90;;;;;;5080189;28;20645;-77
2024/01/06 01:46:37;;;;;;;6.07;5.68;;;1.40;99.90;;;;;;5081486;28;20228;-76
2024/01/06 01:49:05;;;;;;;5.97;5.65;;;1.40;99.90;;;;;;5082545;28;20198;-76
2024/01/06 01:51:35;;;;;;;5.50;5.13;;;1.30;99.90;;;;;;5081072;28;20225;-78
2024/01/06 01:54:04;;;;;;;5.53;5.22;;;1.30;99.90;;;;;;5078138;28;20201;-77
2024/01/06 01:56:33;;;;;;;5.18;4.88;;;1.30;99.90;;;;;;5081049;28;20320;-75
2024/01/06 01:59:02;;;;;;;5.55;5.18;;;1.30;99.90;;;;;;5081804;28;20206;-76
2024/01/06 02:01:29;;;;;;;5.63;5.32;;;1.30;99.90;;;;;;5083649;28;20241;-76
2024/01/06 02:03:59;;;;;;;5.13;4.82;;;1.30;99.90;;;;;;5082344;28;20205;-76
2024/01/06 02:06:25;;;;;;;5.60;5.25;;;1.40;99.90;;;;;;5085957;28;20906;-77
2024/01/06 02:08:52;;;;;;;5.53;5.22;;;1.40;99.90;;;;;;5081828;28;20197;-76
2024/01/06 02:11:19;;;;;;;4.63;4.38;;;1.40;99.90;;;;;;5078268;28;20229;-76
2024/01/06 02:13:46;;;;;;;5.60;5.30;;;1.30;99.90;;;;;;5082984;28;20194;-76
2024/01/06 02:16:13;;;;;;;4.95;4.65;;;1.30;99.90;;;;;;5088486;28;20234;-75
2024/01/06 02:18:41;;;;;;;5.05;4.75;;;1.30;99.90;;;;;;5083086;28;20205;-78
2024/01/06 02:21:10;;;;;;;5.25;4.95;;;1.30;99.90;;;;;;5085792;28;20220;-77
2024/01/06 02:23:38;;;;;;;4.18;3.97;;;1.40;99.90;;;;;;5085556;28;20202;-77
2024/01/06 02:26:06;;;;;;;4.60;4.40;;;1.40;99.90;;;;;;5075447;28;20763;-76
2024/01/06 02:28:33;;;;;;;5.20;4.90;;;1.40;99.90;;;;;;5074407;28;20206;-78
2024/01/06 02:31:00;;;;;;;4.30;4.10;;;1.40;99.90;;;;;;5061419;28;20826;-76
2024/01/06 02:33:27;;;;;;;4.93;4.63;;;1.40;99.90;;;;;;5069208;28;20197;-75
2024/01/06 02:35:54;;;;;;;4.80;4.60;;;1.50;99.90;;;;;;5071249;28;20585;-76
2024/01/06 02:38:21;;;;;;;4.68;4.47;;;1.50;99.90;;;;;;5066798;28;20228;-77
2024/01/06 02:40:49;;;;;;;4.10;3.90;;;1.60;99.90;;;;;;5064379;28;20718;-76
2024/01/06 02:43:16;;;;;;;4.72;4.53;;;1.50;99.90;;;;;;5064931;28;20641;-75
2024/01/06 02:45:43;;;;;;;4.40;4.20;;;1.50;99.90;;;;;;5063476;28;20221;-78
2024/01/06 02:48:10;;;;;;;3.72;3.58;;;1.50;99.90;;;;;;5066160;28;20708;-76
2024/01/06 02:50:37;;;;;;;4.38;4.18;;;1.50;99.90;;;;;;5068222;28;20230;-75
2024/01/06 02:53:05;;;;;;;4.22;4.03;;;1.50;99.90;;;;;;5073026;28;20226;-76
2024/01/06 02:55:32;;;;;;;4.32;4.13;;;1.50;99.90;;;;;;5068682;28;20571;-76
2024/01/06 02:58:00;;;;;;;4.72;4.53;;;1.50;99.90;;;;;;5060578;28;20186;-76
2024/01/06 03:00:27;;;;;;;4.80;4.60;;;1.60;99.90;;;;;;5066145;28;20218;-76
2024/01/06 03:02:54;;;;;;;4.70;4.50;;;1.50;99.90;;;;;;5075155;28;20202;-77
2024/01/06 03:05:21;;;;;;;4.60;4.30;;;1.60;99.90;;;;;;5065997;28;20218;-76
2024/01/06 03:07:48;;;;;;;4.78;4.57;;;1.50;99.90;;;;;;5066707;28;20214;-77
2024/01/06 03:10:15;;;;;;;4.78;4.57;;;1.50;99.90;;;;;;5066305;28;20660;-76
2024/01/06 03:12:42;;;;;;;4.78;4.57;;;1.50;99.90;;;;;;5062311;28;20194;-77
2024/01/06 03:15:11;;;;;;;4.93;4.70;;;1.50;99.90;;;;;;5065087;28;20587;-78
2024/01/06 03:17:38;;;;;;;4.95;4.65;;;1.50;99.90;;;;;;5071722;28;20732;-78
2024/01/06 03:20:07;;;;;;;4.63;4.32;;;1.40;99.90;;;;;;5069395;28;20217;-75
2024/01/06 03:22:34;;;;;;;4.53;4.32;;;1.40;99.90;;;;;;5060408;28;20206;-76
2024/01/06 03:25:02;;;;;;;4.70;4.50;;;1.40;99.90;;;;;;5069128;28;20230;-76
2024/01/06 03:27:29;;;;;;;5.07;4.78;;;1.40;99.90;;;;;;5068456;28;20214;-76
2024/01/06 03:29:56;;;;;;;5.03;4.72;;;1.40;99.90;;;;;;5065387;28;20241;-77
2024/01/06 03:32:25;;;;;;;4.70;4.50;;;1.40;99.90;;;;;;5066391;28;20202;-77
2024/01/06 03:34:52;;;;;;;4.65;4.45;;;1.40;99.90;;;;;;5065882;28;20218;-76
2024/01/06 03:37:19;;;;;;;4.60;4.40;;;1.50;99.90;;;;;;5067771;28;20198;-75
2024/01/06 03:39:46;;;;;;;4.95;4.65;;;1.40;99.90;;;;;;5062790;28;20279;-75
2024/01/06 03:42:14;;;;;;;4.80;4.50;;;1.50;99.90;;;;;;5066538;28;20281;-75
2024/01/06 03:44:41;;;;;;;4.80;4.50;;;1.40;99.90;;;;;;5065515;28;20784;-77
2024/01/06 03:47:08;;;;;;;4.57;4.28;;;1.50;99.90;;;;;;5061592;28;20215;-76
2024/01/06 03:49:36;;;;;;;4.38;4.18;;;1.40;99.90;;;;;;5057880;28;20202;-76
2024/01/06 03:52:03;;;;;;;4.70;4.50;;;1.50;99.90;;;;;;5062417;28;20245;-77
2024/01/06 03:54:30;;;;;;;4.95;4.65;;;1.50;99.90;;;;;;5060846;28;20743;-75
2024/01/06 03:56:57;;;;;;;4.82;4.63;;;1.50;99.90;;;;;;5063956;28;20198;-75
2024/01/06 03:59:25;;;;;;;4.30;4.10;;;1.50;99.90;;;;;;5063572;28;20194;-76
2024/01/06 04:01:52;;;;;;;4.70;4.50;;;1.40;99.90;;;;;;5063748;28;20217;-75
2024/01/06 04:04:19;;;;;;;5.45;5.15;;;1.40;99.90;;;;;;5064775;28;20202;-78
2024/01/06 04:06:47;;;;;;;4.57;4.38;;;1.30;99.90;;;;;;5062598;28;20210;-75
2024/01/06 04:09:14;;;;;;;4.65;4.43;;;1.30;99.90;;;;;;5060793;28;20210;-76
2024/01/06 04:11:41;;;;;;;4.65;4.35;;;1.30;99.90;;;;;;5061797;28;20234;-76
2024/01/06 04:14:08;;;;;;;4.40;4.20;;;1.30;99.90;;;;;;5061678;28;20209;-76
2024/01/06 04:16:35;;;;;;;4.50;4.30;;;1.30;99.90;;;;;;5059375;28;20215;-76
2024/01/06 04:19:02;;;;;;;4.13;3.92;;;1.40;99.90;;;;;;5063760;28;20202;-76
2024/01/06 04:21:29;;;;;;;4.55;4.35;;;1.40;99.90;;;;;;5064854;28;20309;-76
2024/01/06 04:23:58;;;;;;;4.30;4.10;;;1.50;99.90;;;;;;5063659;28;20237;-76
2024/01/06 04:26:25;;;;;;;4.45;4.25;;;1.50;99.90;;;;;;5059168;28;20229;-76
2024/01/06 04:28:52;;;;;;;4.47;4.28;;;1.50;99.90;;;;;;5063324;28;20217;-76
2024/01/06 04:31:19;;;;;;;3.92;3.72;;;1.50;99.90;;;;;;5061888;28;20233;-75
2024/01/06 04:33:46;;;;;;;4.65;4.45;;;1.50;99.90;;;;;;5060873;28;20194;-77
2024/01/06 04:36:13;;;;;;;4.47;4.28;;;1.50;99.90;;;;;;5058359;28;20213;-75
2024/01/06 04:38:40;;;;;;;4.30;4.10;;;1.50;99.90;;;;;;5063410;28;20202;-77
2024/01/06 04:41:08;;;;;;;4.07;3.88;;;1.50;99.90;;;;;;5058747;28;20230;-74
2024/01/06 04:43:35;;;;;;;4.70;4.50;;;1.50;99.90;;;;;;5058587;28;20901;-77
2024/01/06 04:46:02;;;;;;;4.38;4.18;;;1.50;99.90;;;;;;5057852;28;20218;-77
2024/01/06 04:48:29;;;;;;;3.75;3.55;;;1.50;99.90;;;;;;5059596;28;20689;-76
2024/01/06 04:50:56;;;;;;;4.00;3.80;;;1.60;99.90;;;;;;5055381;28;20227;-76
2024/01/06 04:53:23;;;;;;;4.10;3.90;;;1.60;99.90;;;;;;5057915;28;20209;-75
2024/01/06 04:55:50;;;;;;;3.75;3.55;;;1.60;99.90;;;;;;5057884;28;20221;-75
2024/01/06 04:58:19;;;;;;;3.92;3.72;;;1.70;99.90;;;;;;5058006;28;20200;-76
2024/01/06 05:00:46;;;;;;;3.42;3.28;;;1.70;99.90;;;;;;5056117;28;20287;-75
2024/01/06 05:03:13;;;;;;;3.30;3.20;;;1.70;99.90;;;;;;5060062;28;20202;-75
2024/01/06 05:05:40;;;;;;;3.53;3.38;;;1.70;99.90;;;;;;5057418;28;20218;-75
2024/01/06 05:08:07;;;;;;;3.65;3.47;;;1.70;99.90;;;;;;5062356;28;20226;-76
2024/01/06 05:10:34;;;;;;;3.20;3.10;;;1.70;99.90;;;;;;5058517;28;20226;-77
2024/01/06 05:13:01;;;;;;;3.55;3.35;;;1.70;99.90;;;;;;5060474;28;20744;-76
2024/01/06 05:15:30;;;;;;;3.42;3.33;;;1.70;99.90;;;;;;5063375;28;20624;-75
2024/01/06 05:21:50;;;;;;;2.80;2.70;;;1.70;99.90;;;;;;5127849;27;20649;-77
2024/01/06 05:24:17;;;;;;;3.60;3.40;;;1.60;99.90;;;;;;5130357;27;20207;-79
2024/01/06 05:26:44;;;;;;;3.28;3.17;;;1.70;99.90;;;;;;5092149;27;20229;-76
2024/01/06 05:29:11;;;;;;;3.00;2.90;;;1.70;99.90;;;;;;5087883;28;20567;-76
2024/01/06 05:31:40;;;;;;;2.92;2.83;;;1.70;99.90;;;;;;5088530;28;20373;-77
2024/01/06 05:34:08;;;;;;;3.20;3.10;;;1.70;99.90;;;;;;5086380;28;20289;-78
2024/01/06 05:36:41;;;;;;;3.13;3.03;;;1.70;99.90;;;;;;5091095;28;20223;-77
2024/01/06 05:39:10;;;;;;;3.33;3.22;;;1.70;99.90;;;;;;5087940;28;20212;-78
2024/01/06 05:41:40;;;;;;;3.50;3.40;;;1.80;99.90;;;;;;5086953;28;20641;-77
2024/01/06 05:44:07;;;;;;;3.38;3.28;;;1.80;99.90;;;;;;5086608;28;20273;-76
2024/01/06 05:46:35;;;;;;;2.90;2.80;;;1.80;99.90;;;;;;5084763;28;20222;-77
2024/01/06 05:49:02;;;;;;;3.30;3.20;;;1.70;99.90;;;;;;5087741;28;20208;-78
2024/01/06 05:51:29;;;;;;;3.33;3.20;;;1.80;99.90;;;;;;5090402;28;20214;-77
2024/01/06 05:53:56;;;;;;;3.35;3.25;;;1.80;99.90;;;;;;5094699;28;20565;-79
2024/01/06 05:56:26;;;;;;;3.50;3.40;;;1.80;99.90;;;;;;5088979;28;20214;-78
2024/01/06 05:58:53;;;;;;;3.28;3.17;;;1.80;99.90;;;;;;5091955;28;20190;-77
2024/01/06 06:01:21;;;;;;;3.20;3.00;;;1.80;99.90;;;;;;5066724;28;20854;-78
2024/01/06 06:03:49;;;;;;;3.10;3.00;;;1.80;99.90;;;;;;5070406;28;20201;-78
2024/01/06 06:06:16;;;;;;;3.25;3.15;;;1.90;99.90;;;;;;5082108;28;20214;-77
2024/01/06 06:08:44;;;;;;;3.42;3.30;;;1.90;99.90;;;;;;5080026;28;20198;-77
2024/01/06 06:11:12;;;;;;;3.72;3.53;;;1.90;99.90;;;;;;5088163;28;20217;-77
2024/01/06 06:13:41;;;;;;;3.58;3.42;;;1.90;99.90;;;;;;5088535;28;20294;-77
2024/01/06 06:16:12;;;;;;;3.80;3.60;;;1.90;99.90;;;;;;5082355;28;20214;-79
2024/01/06 06:18:39;;;;;;;4.15;3.95;;;1.80;99.90;;;;;;5089966;28;20828;-77
2024/01/06 06:21:07;;;;;;;3.53;3.33;;;1.70;99.90;;;;;;5070891;28;20218;-78
2024/01/06 06:23:34;;;;;;;3.47;3.28;;;1.70;99.90;;;;;;5063696;28;20203;-78
2024/01/06 06:26:06;;;;;;;3.90;3.70;;;1.80;99.90;;;;;;5058381;28;20723;-79
2024/01/06 06:28:34;;;;;;;3.42;3.25;;;1.70;99.90;;;;;;5071208;28;20212;-78
2024/01/06 06:31:02;;;;;;;3.42;3.30;;;1.70;99.90;;;;;;5061369;28;20759;-78
2024/01/06 06:33:29;;;;;;;3.60;3.40;;;1.70;99.90;;;;;;5055708;28;20600;-78
2024/01/06 06:35:57;;;;;;;3.70;3.50;;;1.70;99.90;;;;;;5051439;28;20226;-77
2024/01/06 06:38:24;;;;;;;4.00;3.80;;;1.80;99.90;;;;;;5057626;28;20285;-78
2024/01/06 06:40:51;;;;;;;4.10;3.90;;;1.80;99.90;;;;;;5068825;28;20699;-78
2024/01/06 06:43:18;;;;;;;5.97;5.38;;;1.80;99.90;;;;;;5071220;28;20194;-77
2024/01/06 06:45:45;;;;;;;5.07;4.80;;;1.60;99.90;;;;;;5075026;28;20227;-77
2024/01/06 06:48:13;;;;;;;5.03;4.72;;;1.50;99.90;;;;;;5074884;28;20206;-78
2024/01/06 06:50:41;;;;;;;4.40;4.20;;;1.50;99.90;;;;;;5074498;28;20223;-77
2024/01/06 06:53:09;;;;;;;4.15;3.95;;;1.50;99.90;;;;;;5073954;28;20201;-77
2024/01/06 06:55:37;;;;;;;4.97;4.68;;;1.50;99.90;;;;;;5061443;28;20704;-77
2024/01/06 06:58:05;;;;;;;5.53;5.13;;;1.60;99.90;;;;;;5055472;28;20223;-78
2024/01/06 07:00:32;;;;;;;6.13;5.72;;;1.60;99.90;;;;;;5056832;28;20241;-78
2024/01/06 07:02:59;;;;;;;5.35;4.95;;;1.60;99.90;;;;;;5055289;28;20570;-78
2024/01/06 07:05:28;;;;;;;4.97;4.57;;;1.60;99.90;;;;;;5053571;28;20581;-77
2024/01/06 07:07:55;;;;;;;4.95;4.65;;;1.60;99.90;;;;;;5056581;28;20192;-77
2024/01/06 07:10:23;;;;;;;5.20;4.90;;;1.60;99.90;;;;;;5054662;28;20242;-77
2024/01/06 07:12:50;;;;;;;5.15;4.80;;;1.60;99.90;;;;;;5056470;28;20203;-78
2024/01/06 07:15:17;;;;;;;4.82;4.53;;;1.70;99.90;;;;;;5053392;28;20266;-77
2024/01/06 07:17:44;;;;;;;4.85;4.55;;;1.70;99.90;;;;;;5056043;28;20595;-77
2024/01/06 07:20:12;;;;;;;4.13;3.92;;;1.80;99.90;;;;;;5063366;28;20232;-77
2024/01/06 07:22:41;;;;;;;4.70;4.40;;;1.80;99.90;;;;;;5071739;28;20202;-78
2024/01/06 07:25:08;;;;;;;5.20;4.90;;;1.80;99.90;;;;;;5079463;28;20214;-78
2024/01/06 07:27:35;;;;;;;4.97;4.68;;;1.80;99.90;;;;;;5072381;28;20195;-77
2024/01/06 07:30:02;;;;;;;5.18;4.88;;;1.80;99.90;;;;;;5068568;28;20227;-80
2024/01/06 07:32:29;;;;;;;4.30;4.10;;;1.80;99.90;;;;;;5073653;28;20197;-79
2024/01/06 07:34:56;;;;;;;4.70;4.40;;;1.80;99.90;;;;;;5070249;28;20755;-77
2024/01/06 07:37:24;;;;;;;4.97;4.68;;;1.80;99.90;;;;;;5068654;28;20198;-78
2024/01/06 07:39:52;;;;;;;5.57;5.18;;;1.80;99.90;;;;;;5064237;28;20575;-79
2024/01/06 07:42:19;;;;;;;9.57;8.60;;;1.90;99.90;;;;;;5046333;28;20222;-79
2024/01/06 07:44:46;;;;;;;7.05;6.55;;;1.90;99.90;;;;;;5057482;28;20260;-79
2024/01/06 07:47:14;;;;;;;6.90;6.30;;;1.90;99.90;;;;;;5055935;28;20202;-77
2024/01/06 07:49:41;;;;;;;6.10;5.70;;;1.80;99.90;;;;;;5060789;28;20237;-77
2024/01/06 07:52:08;;;;;;;6.20;5.70;;;1.80;99.90;;;;;;5054379;28;20215;-77
2024/01/06 07:54:35;;;;;;;6.10;5.60;;;1.80;99.90;;;;;;5051438;28;20191;-77
2024/01/06 07:57:04;;;;;;;6.15;5.75;;;1.80;99.90;;;;;;5052096;28;20210;-78
2024/01/06 07:59:31;;;;;;;5.28;4.97;;;1.90;99.90;;;;;;5056377;28;20203;-77
2024/01/06 08:01:58;;;;;;;5.22;4.93;;;2.00;99.90;;;;;;5069282;28;20218;-78
2024/01/06 08:04:26;;;;;;;4.93;4.63;;;2.00;99.90;;;;;;5073165;28;20202;-77
2024/01/06 08:06:53;;;;;;;5.15;4.85;;;2.10;99.90;;;;;;5069705;28;20221;-78
2024/01/06 08:09:20;;;;;;;4.65;4.45;;;2.10;99.90;;;;;;5081176;28;20187;-78
2024/01/06 08:11:48;;;;;;;5.07;4.78;;;2.20;99.90;;;;;;5075584;28;20587;-76
2024/01/06 08:14:17;;;;;;;4.65;4.35;;;2.20;99.90;;;;;;5067149;28;20198;-77
2024/01/06 08:16:44;;;;;;;4.00;3.80;;;2.20;99.90;;;;;;5075353;28;20213;-78
2024/01/06 08:19:11;;;;;;;3.92;3.72;;;2.30;99.90;;;;;;5080663;28;20645;-77
2024/01/06 08:21:38;;;;;;;3.78;3.58;;;2.30;99.90;;;;;;5071955;28;20218;-78
2024/01/06 08:24:05;;;;;;;3.50;3.35;;;2.30;99.90;;;;;;5070617;28;20209;-77
2024/01/06 08:26:33;;;;;;;3.55;3.35;;;2.30;99.90;;;;;;5072566;28;20221;-78
2024/01/06 08:29:00;;;;;;;3.65;3.45;;;2.30;99.90;;;;;;5074565;28;20195;-77
2024/01/06 08:31:28;;;;;;;3.88;3.67;;;2.40;99.90;;;;;;5066837;28;20217;-77
2024/01/06 08:33:56;;;;;;;3.70;3.50;;;2.40;99.90;;;;;;5072596;28;20202;-77
2024/01/06 08:36:23;;;;;;;3.22;3.13;;;2.50;99.90;;;;;;5072594;28;20244;-78
2024/01/06 08:38:50;;;;;;;3.70;3.50;;;2.50;99.90;;;;;;5066012;28;20547;-77
2024/01/06 08:41:17;;;;;;;4.10;3.90;;;2.60;99.90;;;;;;5068236;28;20218;-78
2024/01/06 08:43:44;;;;;;;3.80;3.60;;;2.60;99.90;;;;;;5069698;28;20206;-78
2024/01/06 08:46:11;;;;;;;3.60;3.40;;;2.70;99.90;;;;;;5054978;28;20654;-77
2024/01/06 08:48:40;;;;;;;3.35;3.15;;;2.70;99.90;;;;;;5049399;28;20229;-77
2024/01/06 08:51:07;;;;;;;4.03;3.83;;;2.80;99.90;;;;;;5049066;28;20211;-79
2024/01/06 08:53:34;;;;;;;3.80;3.60;;;2.80;99.90;;;;;;5054523;28;20207;-77
2024/01/06 08:56:01;;;;;;;3.80;3.60;;;2.80;99.90;;;;;;5048934;28;20218;-78
2024/01/06 08:58:28;;;;;;;3.65;3.45;;;2.90;99.90;;;;;;5042900;28;20191;-77
2024/01/06 09:00:55;;;;;;;3.25;3.15;;;2.90;99.90;;;;;;5058750;28;20588;-77
2024/01/06 09:03:25;;;;;;;3.30;3.20;;;2.90;99.90;;;;;;5066458;28;20206;-79
2024/01/06 09:05:55;;;;;;;3.85;3.65;;;2.90;99.90;;;;;;5069358;28;20342;-78
2024/01/06 09:08:22;;;;;;;3.40;3.30;;;2.90;99.90;;;;;;5068149;28;20565;-78
2024/01/06 09:10:51;;;;;;;3.80;3.60;;;2.90;99.90;;;;;;5069022;28;20225;-78
2024/01/06 09:13:18;;;;;;;4.63;4.22;;;2.90;99.90;;;;;;5066649;28;20210;-79
2024/01/06 09:15:45;;;;;;;4.32;4.13;;;2.90;99.90;;;;;;5064310;28;20207;-77
2024/01/06 09:18:12;;;;;;;4.65;4.43;;;2.80;99.90;;;;;;5068259;28;20205;-77
2024/01/06 09:20:39;;;;;;;5.00;4.70;;;2.90;99.90;;;;;;5069238;28;20249;-77
2024/01/06 09:23:08;;;;;;;4.47;4.28;;;2.80;99.90;;;;;;5069035;28;20225;-79
2024/01/06 09:25:35;;;;;;;4.47;4.25;;;2.80;99.90;;;;;;5070113;28;20226;-77
2024/01/06 09:28:02;;;;;;;4.63;4.32;;;2.80;99.90;;;;;;5067343;28;20649;-79
2024/01/06 09:30:29;;;;;;;4.78;4.47;;;2.80;99.90;;;;;;5067879;28;20210;-78
2024/01/06 09:32:56;;;;;;;4.95;4.60;;;2.90;99.90;;;;;;5070635;28;20194;-77
2024/01/06 09:35:23;;;;;;;4.53;4.22;;;2.90;99.90;;;;;;5068239;28;20221;-79
2024/01/06 09:37:50;;;;;;;5.40;5.03;;;3.20;99.90;;;;;;5075618;28;20275;-78
2024/01/06 09:40:23;;;;;;;6.07;5.68;;;3.60;99.90;;;;;;5064732;28;20229;-78
2024/01/06 09:42:50;;;;;;;5.10;4.80;;;4.10;99.90;;;;;;5072371;28;20211;-80
2024/01/06 09:45:17;;;;;;;4.53;4.22;;;4.60;99.90;;;;;;5067949;28;20222;-79
2024/01/06 09:47:49;;;;;;;4.88;4.57;;;4.80;99.90;;;;;;5069941;28;20599;-79
2024/01/06 09:50:19;;;;;;;3.95;3.75;;;4.80;99.90;;;;;;5066824;28;20226;-78
2024/01/06 09:52:54;;;;;;;3.80;3.60;;;4.60;99.90;;;;;;5065757;28;20230;-79
2024/01/06 09:55:26;;;;;;;4.18;3.92;;;4.40;99.90;;;;;;5071454;28;20217;-79
2024/01/06 09:57:53;;;;;;;4.63;4.32;;;4.30;99.90;;;;;;5060244;28;20203;-78
2024/01/06 10:00:21;;;;;;;4.70;4.40;;;4.20;99.90;;;;;;5061728;28;20218;-78
2024/01/06 10:02:50;;;;;;;5.20;4.80;;;4.10;99.90;;;;;;5062006;28;20209;-79
2024/01/06 10:05:18;;;;;;;5.78;5.35;;;4.00;99.90;;;;;;5061467;28;20241;-79
2024/01/06 10:07:45;;;;;;;5.18;4.68;;;3.90;99.90;;;;;;5064849;28;20197;-81
2024/01/06 10:10:12;;;;;;;4.90;4.50;;;3.90;99.90;;;;;;5067182;28;20209;-81
2024/01/06 10:12:41;;;;;;;4.15;3.92;;;3.80;99.90;;;;;;5067489;28;20225;-78
2024/01/06 10:15:10;;;;;;;4.45;4.15;;;3.80;99.90;;;;;;5058737;28;20214;-79
2024/01/06 10:17:38;;;;;;;4.35;4.05;;;3.90;99.90;;;;;;5066261;28;20219;-79
2024/01/06 10:20:09;;;;;;;5.20;4.82;;;3.90;99.90;;;;;;5067012;28;20378;-79
2024/01/06 10:22:37;;;;;;;7.57;6.97;;;3.90;99.90;;;;;;5062696;28;20214;-78
2024/01/06 10:25:06;;;;;;;7.93;7.22;;;3.90;99.90;;;;;;5060896;28;20369;-78
2024/01/06 10:27:35;;;;;;;7.82;7.22;;;3.80;99.90;;;;;;5048957;28;20475;-75
2024/01/06 10:30:04;;;;;;;7.32;6.80;;;3.80;99.90;;;;;;5050812;28;20230;-75
2024/01/06 10:32:33;;;;;;;7.00;6.50;;;3.90;99.90;;;;;;5053129;28;20296;-75
2024/01/06 10:35:01;;;;;;;6.53;6.03;;;3.90;99.90;;;;;;5052001;28;20218;-74
2024/01/06 10:37:29;;;;;;;5.75;5.35;;;3.90;99.90;;;;;;5050800;28;20226;-72
2024/01/06 10:40:10;;;;;;;5.50;5.03;;;3.90;99.90;;;;;;5052347;28;20859;-75
2024/01/06 10:42:39;;;;;;;5.20;4.80;;;3.90;99.90;;;;;;5052102;28;20228;-74
2024/01/06 10:45:09;;;;;;;4.45;4.15;;;3.90;99.90;;;;;;5052002;28;20234;-75
2024/01/06 10:47:37;;;;;;;4.45;4.15;;;3.90;99.90;;;;;;5048678;28;20277;-75
2024/01/06 10:50:04;;;;;;;4.47;4.18;;;3.90;99.90;;;;;;5050709;28;20226;-75
2024/01/06 10:52:32;;;;;;;4.70;4.40;;;3.90;99.90;;;;;;5049367;28;20194;-75
2024/01/06 10:54:59;;;;;;;5.82;5.32;;;4.00;99.90;;;;;;5052066;28;20218;-76
2024/01/06 10:57:28;;;;;;;7.80;6.90;;;4.00;99.90;;;;;;5048491;28;20210;-75
2024/01/06 10:59:55;;;;;;;7.60;6.97;;;4.00;99.90;;;;;;5050521;28;20292;-74
2024/01/06 11:02:25;;;;;;;7.20;6.57;;;4.00;99.90;;;;;;5051568;28;20217;-75
2024/01/06 11:04:53;;;;;;;8.23;7.50;;;3.90;99.90;;;;;;5051862;28;20823;-75
2024/01/06 11:07:22;;;;;;;9.48;8.68;;;4.00;99.90;;;;;;5052323;28;21090;-76
2024/01/06 11:09:53;;;;;;;8.10;7.40;;;3.90;99.90;;;;;;5049426;28;20228;-75
2024/01/06 11:12:21;;;;;;;7.10;6.50;;;3.80;99.90;;;;;;5052356;28;20206;-75
2024/01/06 11:14:48;;;;;;;7.70;7.07;;;3.80;99.90;;;;;;5050248;28;20221;-76
2024/01/06 11:17:53;;;;;;;7.05;6.55;;;3.80;99.90;;;;;;5051155;28;20209;-75
2024/01/06 11:20:21;;;;;;;6.85;6.25;;;3.80;99.90;;;;;;5055843;28;20225;-75
2024/01/06 11:22:48;;;;;;;6.30;5.70;;;3.70;99.90;;;;;;5047488;28;20345;-75
2024/01/06 11:25:18;;;;;;;7.15;6.65;;;3.70;99.90;;;;;;5054232;28;20221;-76
2024/01/06 11:27:46;;;;;;;5.97;5.47;;;3.70;99.90;;;;;;5050192;28;20209;-75
2024/01/06 11:30:24;;;;;;;5.60;5.20;;;3.80;99.90;;;;;;5051061;28;20597;-75
2024/01/06 11:32:54;;;;;;;5.88;5.40;;;3.80;99.90;;;;;;5048431;28;20281;-75
2024/01/06 11:35:23;;;;;;;6.60;6.20;;;3.80;99.90;;;;;;5053830;28;20272;-75
2024/01/06 11:37:56;;;;;;;6.03;5.57;;;3.80;99.90;;;;;;5049589;28;20242;-76
2024/01/06 11:40:26;;;;;;;6.55;6.05;;;3.80;99.90;;;;;;5052536;28;20257;-76
2024/01/06 11:43:04;;;;;;;7.30;6.72;;;3.70;99.90;;;;;;5050211;28;20215;-75
2024/01/06 11:45:32;;;;;;;9.13;8.35;;;3.60;99.90;;;;;;5050772;28;20214;-76
2024/01/06 11:48:02;;;;;;;7.93;7.32;;;3.60;99.90;;;;;;5052743;28;20788;-74
2024/01/06 11:50:30;;;;;;;7.45;6.93;;;3.50;99.90;;;;;;5052065;28;21126;-75
2024/01/06 11:52:57;;;;;;;6.72;6.22;;;3.50;99.90;;;;;;5055194;22;20246;-74
2024/01/06 11:55:27;;;;;;;7.03;6.47;;;3.50;99.90;;;;;;5007703;28;20227;-75
2024/01/06 11:57:56;;;;;;;5.57;5.18;;;3.60;99.90;;;;;;5012462;28;20248;-74
2024/01/06 12:00:23;;;;;;;6.68;6.18;;;3.60;99.90;;;;;;5009056;28;20232;-74
2024/01/06 12:02:50;;;;;;;6.57;6.07;;;3.60;99.90;;;;;;5005232;28;20230;-74
2024/01/06 12:05:19;;;;;;;7.13;6.53;;;3.70;99.90;;;;;;5007844;28;20223;-74
2024/01/06 12:07:55;;;;;;;6.88;6.30;;;3.60;99.90;;;;;;5009490;28;20207;-74
2024/01/06 12:10:22;;;;;;;6.93;6.43;;;3.60;99.90;;;;;;5003555;28;20227;-74
2024/01/06 12:12:58;;;;;;;6.90;6.40;;;3.60;99.90;;;;;;5007458;28;20334;-74
2024/01/06 12:15:25;;;;;;;6.05;5.65;;;3.70;99.90;;;;;;5010295;28;20227;-75
2024/01/06 12:17:52;;;;;;;5.53;5.20;;;3.70;99.90;;;;;;5011477;28;20206;-74
2024/01/06 12:20:22;;;;;;;5.45;5.05;;;3.90;99.90;;;;;;5011777;28;20236;-75
2024/01/06 12:22:49;;;;;;;5.75;5.28;;;4.00;99.90;;;;;;5006641;28;20222;-74
2024/01/06 12:25:15;;;;;;;6.43;5.80;;;4.10;99.90;;;;;;5009579;28;20216;-74
2024/01/06 12:27:43;;;;;;;5.80;5.40;;;4.10;99.90;;;;;;5009325;28;20670;-74
2024/01/06 12:30:15;;;;;;;4.30;4.00;;;4.20;99.90;;;;;;5006600;28;20227;-74
2024/01/06 12:32:43;;;;;;;5.88;5.47;;;4.20;99.90;;;;;;5008283;28;20228;-74
2024/01/06 12:35:11;;;;;;;6.20;5.80;;;4.20;99.90;;;;;;5010452;28;20318;-74
2024/01/06 12:37:40;;;;;;;5.35;4.95;;;4.20;99.90;;;;;;5013209;28;20514;-74
2024/01/06 12:40:10;;;;;;;5.57;5.15;;;4.20;99.90;;;;;;5008449;28;20227;-73
2024/01/06 12:42:37;;;;;;;6.10;5.60;;;4.20;99.90;;;;;;5011325;28;20235;-74
2024/01/06 12:45:05;;;;;;;6.30;5.80;;;4.20;99.90;;;;;;5009026;28;20322;-73
2024/01/06 12:47:32;;;;;;;5.40;5.00;;;4.20;99.90;;;;;;5012126;28;20287;-74
2024/01/06 12:50:00;;;;;;;5.65;5.15;;;4.20;99.90;;;;;;5006814;28;23689;-74
2024/01/06 12:52:27;;;;;;;5.25;4.85;;;4.20;99.90;;;;;;5010434;28;20242;-74
2024/01/06 12:54:55;;;;;;;4.90;4.60;;;4.30;99.90;;;;;;5007558;28;20235;-75
2024/01/06 12:57:22;;;;;;;5.20;4.80;;;4.30;99.90;;;;;;5006309;28;20211;-74
2024/01/06 12:59:49;;;;;;;4.75;4.35;;;4.30;99.90;;;;;;5009248;28;20223;-75
2024/01/06 13:02:16;;;;;;;5.20;4.80;;;4.30;99.90;;;;;;5008277;28;20216;-75
2024/01/06 13:04:43;;;;;;;5.03;4.63;;;4.30;99.90;;;;;;5013984;28;20234;-73